Cordova, Alaska
Current Conditions -  °F | °C
As of 9:53 AM on Tuesday 21 Oct 2014 (Local Time) from PACV Reporting Station
Broken Clouds Broken Clouds  
Wind Chill: 31°   Ceiling: 20000
Heat Index: 31°   Visibility: 10mi
Dew Point: 31°   Wind: 0mph
Humidity: 100%   Direction: NA
Pressure: 29.27"   Gusts: NA
Location:  60.54°N, 145.76°W
Report Text: PACV 211753Z 00000KT 10SM FEW065 SCT085 BKN200 M01/M01 A2927 RMK AO2 SLP910 ACSL W T10061006 10050 21006 57012
Loading
Personal Weather Stations






























Interactive Weather Map
Tropical Storm Tracking
New forecast layout! Learn more

10-Day Weather Forecast

Advertisements
Track Severe Weather on mobile